createdAt,value
2023-04-10T00:00:15.403Z,96.5
2023-04-10T00:05:21.980Z,96
2023-04-10T00:10:28.528Z,96
2023-04-10T00:15:35.127Z,95.5
2023-04-10T00:20:41.709Z,95.5
2023-04-10T00:25:48.250Z,96
2023-04-10T00:30:54.834Z,96.5
2023-04-10T00:36:01.386Z,96.5
2023-04-10T00:41:07.979Z,96.5
2023-04-10T00:46:14.544Z,97
2023-04-10T00:51:21.144Z,97.5
2023-04-10T00:56:27.696Z,98.5
2023-04-10T01:01:33.528Z,98.5
2023-04-10T01:06:40.091Z,98
2023-04-10T01:11:46.661Z,98
2023-04-10T01:16:53.239Z,98
2023-04-10T01:21:59.813Z,98
2023-04-10T01:27:06.393Z,98.5
2023-04-10T01:32:12.945Z,98.5
2023-04-10T01:37:19.573Z,98.5
2023-04-10T01:42:26.096Z,99
2023-04-10T01:47:32.730Z,98.5
2023-04-10T01:52:39.242Z,98.5
2023-04-10T01:57:45.859Z,99
2023-04-10T02:02:52.449Z,98.5
2023-04-10T02:07:58.228Z,99.5
2023-04-10T02:13:04.808Z,99.5
2023-04-10T02:18:11.382Z,99.5
2023-04-10T02:23:17.939Z,99.5
2023-04-10T02:28:24.533Z,99.5
2023-04-10T02:33:31.158Z,99.5
2023-04-10T02:38:37.665Z,99.5
2023-04-10T02:43:44.244Z,99.5
2023-04-10T02:48:50.829Z,99.5
2023-04-10T02:53:57.377Z,99.5
2023-04-10T02:59:03.997Z,99.5
2023-04-10T03:04:10.526Z,99.5
2023-04-10T03:09:17.107Z,99.5
2023-04-10T03:14:22.951Z,99.5
2023-04-10T03:19:29.521Z,99.5
2023-04-10T03:24:36.090Z,99.5
2023-04-10T03:29:42.669Z,99.5
2023-04-10T03:34:49.233Z,99.5
2023-04-10T03:39:55.817Z,99.5
2023-04-10T03:45:02.383Z,99.5
2023-04-10T03:50:08.964Z,99.5
2023-04-10T03:55:15.537Z,99.5
2023-04-10T04:00:22.108Z,99.5
2023-04-10T04:05:28.681Z,99.5
2023-04-10T04:10:35.260Z,99.5
2023-04-10T04:15:41.819Z,99.5
2023-04-10T04:20:48.394Z,99.5
2023-04-10T04:25:54.245Z,99.5
2023-04-10T04:31:00.823Z,99.5
2023-04-10T04:36:07.439Z,99.5
2023-04-10T04:41:13.966Z,99.5
2023-04-10T04:46:20.549Z,99.5
2023-04-10T04:51:27.116Z,99.5
2023-04-10T04:56:33.694Z,99.5
2023-04-10T05:01:40.263Z,99.5
2023-04-10T05:06:46.852Z,99.5
2023-04-10T05:11:53.415Z,99.5
2023-04-10T05:17:00.023Z,99.5
2023-04-10T05:22:06.574Z,99.5
2023-04-10T05:27:13.175Z,99.5
2023-04-10T05:32:19.718Z,99.5
2023-04-10T05:37:25.559Z,99.5
2023-04-10T05:42:32.117Z,99.5
2023-04-10T05:47:38.745Z,99.5
2023-04-10T05:52:45.270Z,99.5
2023-04-10T05:57:51.865Z,99.5
2023-04-10T06:02:58.532Z,99
2023-04-10T06:08:04.979Z,98.5
2023-04-10T06:13:11.552Z,97
2023-04-10T06:18:18.116Z,96.5
2023-04-10T06:23:24.698Z,95
2023-04-10T06:28:31.274Z,94
2023-04-10T06:33:37.844Z,92.5
2023-04-10T06:38:44.403Z,90.5
2023-04-10T06:43:50.250Z,87.5
2023-04-10T06:48:56.835Z,86.5
2023-04-10T06:54:03.409Z,82.5
2023-04-10T06:59:09.962Z,80.5
2023-04-10T07:04:16.527Z,78
2023-04-10T07:09:23.125Z,74
2023-04-10T07:19:36.252Z,71
2023-04-10T07:24:42.809Z,69.5
2023-04-10T07:29:49.375Z,67
2023-04-10T07:34:55.965Z,65
2023-04-10T07:40:02.537Z,64
2023-04-10T07:45:09.090Z,60.5
2023-04-10T07:55:21.518Z,60
2023-04-10T08:00:28.083Z,61
2023-04-10T08:05:34.642Z,59.5
2023-04-10T08:10:41.196Z,58
2023-04-10T08:15:47.822Z,59
2023-04-10T08:20:54.348Z,55.5
2023-04-10T08:26:01.105Z,53
2023-04-10T08:31:07.618Z,53
2023-04-10T08:36:14.088Z,51.5
2023-04-10T08:41:20.923Z,51.5
2023-04-10T08:46:27.352Z,50.5
2023-04-10T08:51:33.886Z,50
2023-04-10T08:56:39.752Z,49
2023-04-10T09:01:46.283Z,45.5
2023-04-10T09:06:52.890Z,47
2023-04-10T09:11:59.277Z,45
2023-04-10T09:17:05.999Z,47
2023-04-10T09:22:12.523Z,45.5
2023-04-10T09:27:19.163Z,42.5
2023-04-10T09:32:25.562Z,44.5
2023-04-10T09:37:32.260Z,40.5
2023-04-10T09:42:38.869Z,40.5
2023-04-10T09:47:45.415Z,42
2023-04-10T09:52:51.999Z,39.5
2023-04-10T09:57:58.462Z,41
2023-04-10T10:03:04.387Z,39.5
2023-04-10T10:08:10.947Z,40
2023-04-10T10:13:17.378Z,39
2023-04-10T10:18:24.152Z,41.5
2023-04-10T10:23:30.502Z,40.5
2023-04-10T10:28:37.207Z,42.5
2023-04-10T10:33:43.679Z,42
2023-04-10T10:38:50.192Z,42.5
2023-04-10T10:43:56.846Z,41
2023-04-10T10:49:03.514Z,42.5
2023-04-10T10:54:09.989Z,41.5
2023-04-10T10:59:16.484Z,39.5
2023-04-10T11:04:23.269Z,38
2023-04-10T11:09:29.051Z,40.5
2023-04-10T11:14:35.610Z,40.5
2023-04-10T11:19:42.043Z,38
2023-04-10T11:24:48.763Z,40.5
2023-04-10T11:29:55.323Z,42.5
2023-04-10T11:35:01.957Z,45.5
2023-04-10T11:40:08.473Z,40.5
2023-04-10T11:45:15.011Z,39.5
2023-04-10T11:50:21.442Z,42
2023-04-10T11:55:28.225Z,37.5
2023-04-10T12:00:34.720Z,40.5
2023-04-10T12:10:47.956Z,39
2023-04-10T12:15:53.717Z,36.5
2023-04-10T12:21:00.267Z,36.5
2023-04-10T12:26:06.854Z,38.5
2023-04-10T12:31:13.381Z,39
2023-04-10T12:36:19.991Z,36
2023-04-10T12:41:26.600Z,39.5
2023-04-10T12:46:33.189Z,40
2023-04-10T12:51:39.584Z,41
2023-04-10T12:56:46.166Z,39.5
2023-04-10T13:01:52.824Z,42.5
2023-04-10T13:06:59.387Z,42
2023-04-10T13:12:05.918Z,41
2023-04-10T13:17:12.535Z,43.5
2023-04-10T13:22:18.291Z,41.5
2023-04-10T13:27:24.885Z,40.5
2023-04-10T13:32:31.492Z,41
2023-04-10T13:37:37.974Z,40
2023-04-10T13:42:44.407Z,42
2023-04-10T13:47:51.022Z,46.5
2023-04-10T13:52:57.541Z,47
2023-04-10T13:58:04.113Z,44.5
2023-04-10T14:03:10.690Z,41
2023-04-10T14:08:17.241Z,40
2023-04-10T14:13:23.827Z,40.5
2023-04-10T14:18:30.364Z,39
2023-04-10T14:23:36.954Z,44.5
2023-04-10T14:28:42.962Z,43.5
2023-04-10T14:33:49.378Z,39.5
2023-04-10T14:38:55.924Z,47
2023-04-10T14:44:02.485Z,44.5
2023-04-10T14:49:09.050Z,42
2023-04-10T14:54:15.614Z,41.5
2023-04-10T14:59:22.276Z,42.5
2023-04-10T15:04:28.781Z,40.5
2023-04-10T15:09:35.315Z,39.5
2023-04-10T15:14:41.888Z,40
2023-04-10T15:19:48.447Z,40
2023-04-10T15:24:55.070Z,38
2023-04-10T15:30:01.594Z,46
2023-04-10T15:35:07.410Z,42.5
2023-04-10T15:40:13.977Z,46
2023-04-10T15:45:20.537Z,43
2023-04-10T15:50:27.199Z,42.5
2023-04-10T15:55:33.726Z,45.5
2023-04-10T16:00:40.384Z,45.5
2023-04-10T16:05:46.957Z,44
2023-04-10T16:10:53.365Z,45
2023-04-10T16:16:00.065Z,47
2023-04-10T16:21:06.649Z,47
2023-04-10T16:26:13.105Z,46.5
2023-04-10T16:31:19.631Z,47.5
2023-04-10T16:36:26.370Z,47.5
2023-04-10T16:41:32.119Z,49.5
2023-04-10T16:46:38.713Z,50.5
2023-04-10T16:51:45.159Z,51.5
2023-04-10T16:56:51.733Z,52.5
2023-04-10T17:01:58.395Z,53.5
2023-04-10T17:07:04.864Z,53.5
2023-04-10T17:12:11.480Z,53.5
2023-04-10T17:17:18.220Z,55
2023-04-10T17:22:24.573Z,55
2023-04-10T17:27:31.136Z,54.5
2023-04-10T17:32:37.704Z,55
2023-04-10T17:37:44.282Z,55
2023-04-10T17:42:50.842Z,56
2023-04-10T17:47:56.680Z,55.5
2023-04-10T17:53:03.238Z,56
2023-04-10T17:58:09.821Z,55.5
2023-04-10T18:03:16.364Z,55.5
2023-04-10T18:08:22.949Z,55.5
2023-04-10T18:13:29.524Z,55
2023-04-10T18:18:36.088Z,54.5
2023-04-10T18:23:42.645Z,54.5
2023-04-10T18:28:49.233Z,54.5
2023-04-10T18:33:55.801Z,54
2023-04-10T18:39:02.356Z,55
2023-04-10T18:44:08.926Z,55
2023-04-10T18:49:15.497Z,55
2023-04-10T18:54:21.343Z,55
2023-04-10T18:59:27.895Z,55
2023-04-10T19:04:34.472Z,56
2023-04-10T19:09:41.043Z,56.5
2023-04-10T19:14:47.621Z,56.5
2023-04-10T19:25:00.868Z,56
2023-04-10T19:30:07.330Z,56.5
2023-04-10T19:35:13.986Z,57
2023-04-10T19:40:20.571Z,57.5
2023-04-10T19:50:33.735Z,58
2023-04-10T19:55:40.154Z,57.5
2023-04-10T20:00:45.983Z,57
2023-04-10T20:05:52.926Z,57
2023-04-10T20:10:59.136Z,57.5
2023-04-10T20:16:05.696Z,57
2023-04-10T20:21:12.269Z,57
2023-04-10T20:26:18.843Z,57
2023-04-10T20:31:25.419Z,56.5
2023-04-10T20:36:31.983Z,57.5
2023-04-10T20:41:38.566Z,57.5
2023-04-10T20:46:45.109Z,57.5
2023-04-10T20:51:51.685Z,57.5
2023-04-10T20:56:58.258Z,57.5
2023-04-10T21:02:04.830Z,57.5
2023-04-10T21:07:10.662Z,57.5
2023-04-10T21:12:17.283Z,57.5
2023-04-10T21:17:23.832Z,57.5
2023-04-10T21:22:30.389Z,57.5
2023-04-10T21:27:36.962Z,57.5
2023-04-10T21:32:43.535Z,57.5
2023-04-10T21:37:50.084Z,57.5
2023-04-10T21:42:56.680Z,57.5
2023-04-10T21:48:03.247Z,58.5
2023-04-10T21:53:09.809Z,58
2023-04-10T21:58:16.372Z,58.5
2023-04-10T22:03:22.940Z,58.5
2023-04-10T22:08:29.527Z,58.5
2023-04-10T22:13:35.368Z,59
2023-04-10T22:18:41.938Z,59.5
2023-04-10T22:23:48.503Z,59.5
2023-04-10T22:28:55.068Z,59.5
2023-04-10T22:34:01.632Z,58.5
2023-04-10T22:39:08.226Z,58
2023-04-10T22:44:14.769Z,58.5
2023-04-10T22:49:21.349Z,58.5
2023-04-10T22:54:27.917Z,58.5
2023-04-10T22:59:34.492Z,58.5
2023-04-10T23:04:41.046Z,58.5
2023-04-10T23:09:47.626Z,58.5
2023-04-10T23:14:54.187Z,59
2023-04-10T23:20:00.036Z,58.5
2023-04-10T23:25:06.605Z,58.5
2023-04-10T23:30:13.163Z,58
2023-04-10T23:35:19.741Z,57
2023-04-10T23:40:26.306Z,56.5
2023-04-10T23:45:32.908Z,56.5
2023-04-10T23:50:39.457Z,57
2023-04-10T23:55:46.027Z,57.5
